Flight Track Log - Related Links

Times and Time Zones

All times are in EST time to prevent confusion due to time zone crossing. See the FSR411 flight status page for this flight to view local times or setup timezone preferences in your user account.

Time Position Orientation Groundspeed Altitude Reporting Facility
EST Latitude Longitude Course Direction KTS MPH feet Rate Location/Type
Wed 03:36:57 PM 41.3878 -81.9111 259° West 186 214 3,700  Level Cleveland Center
Wed 03:37:58 PM 41.4025 -81.9658 290° West 200 230 7,200 3,484 Climbing Cleveland Center
Wed 03:39:01 PM 41.4511 -81.9208 35° Northeast 219 252 10,900 2,736 Climbing Cleveland Center
Wed 03:40:03 PM 41.5144 -81.8369 45° Northeast 310 357 12,900 3,194 Climbing Cleveland Center
Wed 03:41:05 PM 41.5889 -81.7425 43° Northeast 356 410 17,500 4,065 Climbing Cleveland Center
Wed 03:42:07 PM 41.6672 -81.6422 44° Northeast 377 434 21,300 2,758 Climbing Cleveland Center
Wed 03:43:09 PM 41.7492 -81.5350 44° Northeast 401 461 23,200 2,226 Climbing Cleveland Center
Wed 03:44:11 PM 41.8386 -81.3928 50° Northeast 435 501 25,900 2,419 Climbing Cleveland Center
Wed 03:45:13 PM 41.8703 -81.2242 76° East 464 534 28,200 2,323 Climbing Cleveland Center
Wed 03:46:15 PM 41.8964 -81.0522 78° East 466 536 30,700 2,177 Climbing Cleveland Center
Wed 03:47:17 PM 41.9244 -80.8803 78° East 467 537 32,700 1,694 Climbing Cleveland Center
Wed 03:48:19 PM 41.9522 -80.7053 78° East 472 543 34,200 1,452 Climbing Cleveland Center
Wed 03:49:21 PM 41.9806 -80.5292 78° East 478 550 35,700 1,440 Climbing Cleveland Center
Wed 03:50:24 PM 42.0083 -80.3550 78° East 473 544 37,200 1,152 Climbing Cleveland Center
Wed 03:51:26 PM 42.0347 -80.1778 79° East 478 550 38,100 823 Climbing Cleveland Center
Wed 03:52:28 PM 42.0653 -79.9756 78° East 483 556 38,900 726 Climbing Cleveland Center
Wed 03:53:30 PM 42.0919 -79.7933 79° East 494 568 39,600 629 Climbing Cleveland Center
Wed 03:54:32 PM 42.1183 -79.6111 79° East 498 573 40,200 532 Climbing Cleveland Center
Wed 03:55:34 PM 42.1447 -79.4283 79° East 501 577 40,700 387 Climbing Cleveland Center
Wed 03:56:36 PM 42.1708 -79.2458 79° East 499 574 41,000 145 Climbing Cleveland Center
Wed 03:57:38 PM 42.2003 -79.0247 80° East 500 575 41,000  Level Cleveland Center
Wed 03:58:40 PM 42.2211 -78.8592 80° East 504 580 41,000  Level Cleveland Center
Wed 03:59:43 PM 42.2500 -78.6369 80° East 504 580 41,000  Level Cleveland Center
Wed 04:00:45 PM 42.2733 -78.4500 80° East 505 581 41,000  Level Cleveland Center
Wed 04:01:47 PM 42.2967 -78.2639 80° East 506 582 41,000  Level Cleveland Center
Wed 04:02:49 PM 42.3189 -78.0783 81° East 504 580 41,000  Level Cleveland Center
Wed 04:03:51 PM 42.3397 -77.8942 81° East 503 579 41,000  Level Cleveland Center
Wed 04:04:53 PM 42.3656 -77.6808 81° East 489 563 41,000  Level Cleveland Center
Wed 04:05:55 PM 42.3858 -77.5047 81° East 483 556 41,000  Level Cleveland Center
Wed 04:06:57 PM 42.4056 -77.3314 81° East 475 547 41,000  Level Cleveland Center
Wed 04:07:59 PM 42.4250 -77.1550 81° East 477 549 41,000  Level Cleveland Center
Wed 04:09:01 PM 42.4447 -76.9772 81° East 481 554 41,000  Level Cleveland Center
Wed 04:09:55 PM 42.4650 -76.7994 81° East 483 556 41,000  Level Boston Center
Wed 04:10:55 PM 42.4839 -76.6192 82° East 485 558 41,000  Level Boston Center
Wed 04:11:55 PM 42.5039 -76.4378 81° East 489 563 41,000  Level Boston Center
Wed 04:12:57 PM 42.5228 -76.2567 82° East 490 564 41,000  Level Boston Center
Wed 04:13:59 PM 42.5400 -76.0828 82° East 490 564 41,000  Level Boston Center
Wed 04:14:59 PM 42.5458 -75.8672 88° East 481 554 41,000  Level Boston Center
Wed 04:16:00 PM 42.5467 -75.6889 90° East 478 550 41,000  Level Boston Center
Wed 04:17:01 PM 42.5481 -75.5094 89° East 479 551 41,000 -496 Level Boston Center
Wed 04:18:01 PM 42.5492 -75.3344 89° East 472 543 40,000 -1,820 Descending Boston Center
Wed 04:19:03 PM 42.5489 -75.1625 90° East 463 533 37,300 -2,557 Descending Boston Center
Wed 04:20:03 PM 42.5497 -74.9958 90° East 449 517 34,800 -2,371 Descending Boston Center
Wed 04:21:07 PM 42.5494 -74.8322 90° East 440 506 32,400 -2,304 Descending Boston Center
Wed 04:22:08 PM 42.5494 -74.6586 90° East 459 528 30,000 -1,700 Descending Boston Center
Wed 04:23:07 PM 42.5494 -74.4853 90° East 464 534 29,000 -1,008 Descending Boston Center
Wed 04:24:07 PM 42.5492 -74.2803 90° East 467 537 28,000 -968 Descending Boston Center
Wed 04:25:11 PM 42.5492 -74.1131 90° East 454 522 27,000 -1,008 Descending Boston Center
Wed 04:26:12 PM 42.5469 -73.9494 91° East 441 507 25,900 -1,328 Descending Boston Center
Wed 04:27:13 PM 42.5461 -73.7911 90° East 428 493 24,300 -1,377 Descending Boston Center
Wed 04:28:14 PM 42.5439 -73.6397 91° East 416 479 23,100 -1,289 Descending Boston Center
Wed 04:29:14 PM 42.5428 -73.4933 91° East 398 458 21,700 -1,289 Descending Boston Center
Wed 04:30:15 PM 42.5400 -73.3456 91° East 394 453 20,500 -1,171 Descending Boston Center
Wed 04:31:17 PM 42.5383 -73.2000 91° East 389 448 19,300 -738 Descending Boston Center
Wed 04:32:17 PM 42.5358 -73.0456 91° East 375 432 19,000 -148 Descending Boston Center
Wed 04:33:19 PM 42.5339 -72.8983 91° East 389 448 19,000  Level Boston Center
Wed 04:34:20 PM 42.5308 -72.7414 91° East 388 447 19,000 -492 Level Boston Center
Wed 04:35:21 PM 42.5283 -72.6144 91° East 383 441 18,000 -1,180 Descending Boston Center
Wed 04:36:22 PM 42.5269 -72.4814 91° East 359 413 16,600 -1,525 Descending Boston Center
Wed 04:37:23 PM 42.5244 -72.3544 91° East 341 392 14,900 -1,869 Descending Boston Center
Wed 04:38:24 PM 42.5219 -72.2128 91° East 320 368 12,800 -1,967 Descending Boston Center
Wed 04:39:25 PM 42.5189 -72.0933 92° East 317 365 10,900 -2,000 Descending Boston Center
Wed 04:40:27 PM 42.5161 -71.9703 92° East 327 376 8,700 -1,736 Descending Boston Center
Wed 04:41:26 PM 42.5108 -71.8358 93° East 330 380 7,400 -1,180 Descending Boston Center
Wed 04:42:29 PM 42.5136 -71.7253 88° East 301 346 6,300 -919 Descending Boston Center
Wed 04:43:30 PM 42.5253 -71.6239 81° East 276 318 5,500 -793 Descending Boston Center
Wed 04:44:30 PM 42.5386 -71.5256 80° East 268 308 4,700 -645 Descending Boston Center
Wed 04:45:31 PM 42.5531 -71.4267 79° East 251 289 4,200 -347 Descending Boston Center
Wed 04:46:31 PM 42.5658 -71.3400 79° East 237 273 4,000 -484 Descending Boston Center
Wed 04:47:35 PM 42.5772 -71.2692 78° East 197 227 3,200 -816 Descending Boston Center
Wed 04:48:36 PM 42.5872 -71.1972 79° East 194 223 2,300 -694 Descending Boston Center
Wed 04:49:36 PM 42.5906 -71.1217 87° East 188 216 1,800 -248 Descending Boston Center
Wed 04:50:37 PM 42.5567 -71.0822 139° Southeast 184 212 1,800  Level Boston Center
Wed 04:51:38 PM 42.5056 -71.0739 173° South 184 212 1,800  Level Boston Center
Wed 04:52:39 PM 42.4639 -71.0881 194° South 175 201 1,800  Level Boston Center
Wed 04:53:39 PM 42.4575 -71.1419 261° West 153 176 1,800 -150 Level Boston Center
Wed 04:54:39 PM 42.4622 -71.1903 278° West 121 139 1,500 -462 Descending Boston Center
Wed 04:55:49 PM 42.4667 -71.2333 278° West 111 128 800 -600 Descending KA90

Login

Don't have an account? Register now (free) for customized features, flight alerts, and more!